WWA1800 KATL-KCVG
Flight info
| Callsign | WWA1800 |
|---|---|
| Flight time | N/A |
| Altitude | 29000 |
| Route | PADGT2 SMTTH ARTUR JAKIE6 |
| Aircraft | F28/M-SDFIRWY/H |
Departure
| Time | N/A |
|---|---|
| Airport | Hartsfield Jackson Atlanta International Airport (KATL) |
Arrival
| Time | 2026-05-04 09:40 |
|---|---|
| Airport | Cincinnati Northern Kentucky International Airport (KCVG) |
| Time | Latitude | Longitude | Altitude | Speed | Heading |
|---|---|---|---|---|---|
| 2026-05-04 08:46 | 35.43310 | -84.12450 | 29107 ft | 419 kts | 4° |
| 2026-05-04 08:46 | 35.49035 | -84.11037 | 29106 ft | 419 kts | 4° |
| 2026-05-04 08:47 | 35.54719 | -84.09631 | 29098 ft | 419 kts | 4° |
| 2026-05-04 08:47 | 35.60448 | -84.08216 | 29094 ft | 419 kts | 4° |
| 2026-05-04 08:48 | 35.66165 | -84.06796 | 29096 ft | 419 kts | 4° |
| 2026-05-04 08:48 | 35.71878 | -84.05376 | 29095 ft | 419 kts | 4° |
| 2026-05-04 08:49 | 35.77591 | -84.03952 | 29099 ft | 419 kts | 4° |
| 2026-05-04 08:50 | 35.94640 | -84.00560 | 29102 ft | 403 kts | 350° |
| 2026-05-04 08:50 | 35.97440 | -84.00750 | 29106 ft | 402 kts | 348° |
| 2026-05-04 08:51 | 36.03022 | -84.01194 | 29106 ft | 402 kts | 348° |
| 2026-05-04 08:51 | 36.08609 | -84.01590 | 29102 ft | 402 kts | 349° |
| 2026-05-04 08:52 | 36.14196 | -84.01917 | 29095 ft | 401 kts | 349° |
| 2026-05-04 08:52 | 36.19778 | -84.02218 | 29091 ft | 401 kts | 350° |
| 2026-05-04 08:54 | 36.41975 | -84.03461 | 29086 ft | 398 kts | 349° |
| 2026-05-04 08:55 | 36.47513 | -84.03776 | 29090 ft | 398 kts | 349° |
| 2026-05-04 08:55 | 36.53052 | -84.04093 | 29083 ft | 398 kts | 349° |
| 2026-05-04 09:01 | 37.10757 | -84.07429 | 29052 ft | 394 kts | 349° |
| 2026-05-04 09:01 | 37.16197 | -84.07747 | 29048 ft | 393 kts | 349° |
| 2026-05-04 09:02 | 37.21668 | -84.08067 | 29049 ft | 393 kts | 349° |
| 2026-05-04 09:02 | 37.27140 | -84.08394 | 29046 ft | 394 kts | 349° |
| 2026-05-04 09:03 | 37.32628 | -84.08717 | 29047 ft | 395 kts | 349° |
| 2026-05-04 09:03 | 37.38130 | -84.09039 | 29036 ft | 396 kts | 349° |
| 2026-05-04 09:04 | 37.43636 | -84.09362 | 29026 ft | 396 kts | 349° |
| 2026-05-04 09:04 | 37.49131 | -84.09687 | 29042 ft | 399 kts | 349° |
| 2026-05-04 09:05 | 37.54681 | -84.10012 | 29021 ft | 398 kts | 349° |
| 2026-05-04 09:05 | 37.60217 | -84.10336 | 28873 ft | 400 kts | 349° |
| 2026-05-04 09:05 | 37.63015 | -84.10505 | 28079 ft | 402 kts | 349° |
| 2026-05-04 09:06 | 37.65800 | -84.10674 | 27229 ft | 400 kts | 350° |
| 2026-05-04 09:07 | 37.84487 | -84.11767 | 22628 ft | 365 kts | 350° |
| 2026-05-04 09:08 | 37.87008 | -84.11919 | 21987 ft | 360 kts | 350° |
| 2026-05-04 09:08 | 37.89474 | -84.12064 | 21695 ft | 347 kts | 350° |
| 2026-05-04 09:08 | 37.91797 | -84.12187 | 21896 ft | 319 kts | 349° |
| 2026-05-04 09:08 | 37.93917 | -84.12291 | 22076 ft | 294 kts | 349° |
| 2026-05-04 09:09 | 37.95902 | -84.12395 | 21977 ft | 280 kts | 348° |
| 2026-05-04 09:09 | 37.97854 | -84.12519 | 21447 ft | 281 kts | 348° |
| 2026-05-04 09:09 | 37.99809 | -84.12657 | 20930 ft | 282 kts | 348° |
| 2026-05-04 09:09 | 38.01782 | -84.12801 | 20326 ft | 285 kts | 348° |
| 2026-05-04 09:10 | 38.03775 | -84.12944 | 19733 ft | 289 kts | 348° |
| 2026-05-04 09:10 | 38.05794 | -84.13082 | 19154 ft | 291 kts | 349° |
| 2026-05-04 09:10 | 38.07825 | -84.13213 | 18582 ft | 293 kts | 349° |
| 2026-05-04 09:10 | 38.09875 | -84.13339 | 17979 ft | 295 kts | 349° |
| 2026-05-04 09:11 | 38.11927 | -84.13461 | 17333 ft | 296 kts | 349° |
| 2026-05-04 09:11 | 38.13991 | -84.13581 | 16703 ft | 297 kts | 350° |
| 2026-05-04 09:11 | 38.16040 | -84.13698 | 16090 ft | 297 kts | 350° |
| 2026-05-04 09:11 | 38.18107 | -84.13816 | 15487 ft | 297 kts | 350° |
| 2026-05-04 09:12 | 38.20172 | -84.13934 | 14898 ft | 297 kts | 350° |
| 2026-05-04 09:12 | 38.22243 | -84.14053 | 14313 ft | 297 kts | 350° |
| 2026-05-04 09:14 | 38.35933 | -84.14866 | 10272 ft | 286 kts | 351° |
| 2026-05-04 09:14 | 38.37892 | -84.14978 | 9669 ft | 277 kts | 351° |
| 2026-05-04 09:14 | 38.39790 | -84.15085 | 9046 ft | 268 kts | 350° |
| 2026-05-04 09:14 | 38.41629 | -84.15190 | 8427 ft | 261 kts | 350° |
| 2026-05-04 09:15 | 38.43371 | -84.15423 | 7900 ft | 245 kts | 335° |
| 2026-05-04 09:15 | 38.44826 | -84.16290 | 7675 ft | 222 kts | 324° |
| 2026-05-04 09:15 | 38.46148 | -84.17267 | 7425 ft | 218 kts | 323° |
| 2026-05-04 09:15 | 38.47453 | -84.18238 | 7188 ft | 216 kts | 323° |
| 2026-05-04 09:17 | 38.58643 | -84.26636 | 6145 ft | 291 kts | 325° |
| 2026-05-04 09:18 | 38.60322 | -84.27836 | 6171 ft | 264 kts | 326° |
| 2026-05-04 09:18 | 38.61864 | -84.28917 | 6163 ft | 241 kts | 325° |
| 2026-05-04 09:18 | 38.63286 | -84.29906 | 6176 ft | 225 kts | 324° |
| 2026-05-04 09:18 | 38.64769 | -84.30994 | 6201 ft | 268 kts | 321° |
| 2026-05-04 09:19 | 38.66219 | -84.32703 | 6232 ft | 301 kts | 308° |
| 2026-05-04 09:19 | 38.67584 | -84.34765 | 6220 ft | 292 kts | 306° |
| 2026-05-04 09:19 | 38.68824 | -84.36675 | 6183 ft | 266 kts | 306° |
| 2026-05-04 09:19 | 38.69957 | -84.38417 | 6181 ft | 244 kts | 306° |
| 2026-05-04 09:20 | 38.70991 | -84.40004 | 6186 ft | 226 kts | 306° |
| 2026-05-04 09:20 | 38.71964 | -84.41497 | 6167 ft | 211 kts | 306° |
| 2026-05-04 09:20 | 38.72878 | -84.42894 | 6180 ft | 201 kts | 306° |
| 2026-05-04 09:20 | 38.73873 | -84.44432 | 6213 ft | 239 kts | 306° |
| 2026-05-04 09:21 | 38.74905 | -84.45996 | 6191 ft | 221 kts | 306° |
| 2026-05-04 09:21 | 38.75874 | -84.47441 | 6183 ft | 206 kts | 306° |
| 2026-05-04 09:21 | 38.76783 | -84.48789 | 6209 ft | 194 kts | 306° |
| 2026-05-04 09:21 | 38.77630 | -84.50037 | 6245 ft | 177 kts | 306° |
| 2026-05-04 09:22 | 38.78451 | -84.51262 | 6245 ft | 174 kts | 306° |
| 2026-05-04 09:22 | 38.79167 | -84.52308 | 6022 ft | 145 kts | 305° |
| 2026-05-04 09:22 | 38.79805 | -84.53233 | 5958 ft | 141 kts | 304° |
| 2026-05-04 09:22 | 38.80484 | -84.54268 | 5991 ft | 161 kts | 304° |
| 2026-05-04 09:23 | 38.81232 | -84.55413 | 5998 ft | 172 kts | 305° |
| 2026-05-04 09:23 | 38.82011 | -84.56586 | 5988 ft | 168 kts | 306° |
| 2026-05-04 09:23 | 38.82751 | -84.57674 | 5980 ft | 156 kts | 306° |
| 2026-05-04 09:23 | 38.83441 | -84.58689 | 5979 ft | 150 kts | 305° |
| 2026-05-04 09:25 | 38.88902 | -84.66789 | 5986 ft | 156 kts | 305° |
| 2026-05-04 09:25 | 38.89633 | -84.67885 | 5982 ft | 167 kts | 304° |
| 2026-05-04 09:26 | 38.90400 | -84.69038 | 5985 ft | 171 kts | 305° |
| 2026-05-04 09:26 | 38.91176 | -84.70195 | 5986 ft | 171 kts | 305° |
| 2026-05-04 09:26 | 38.91957 | -84.71365 | 5804 ft | 178 kts | 305° |
| 2026-05-04 09:26 | 38.92775 | -84.72596 | 5323 ft | 174 kts | 304° |
| 2026-05-04 09:27 | 38.93532 | -84.73704 | 4808 ft | 157 kts | 304° |
| 2026-05-04 09:27 | 38.94225 | -84.74718 | 4282 ft | 147 kts | 303° |
| 2026-05-04 09:27 | 38.94896 | -84.75706 | 3804 ft | 148 kts | 302° |
| 2026-05-04 09:27 | 38.95580 | -84.76719 | 3478 ft | 153 kts | 301° |
| 2026-05-04 09:28 | 38.96374 | -84.77811 | 3262 ft | 187 kts | 312° |
| 2026-05-04 09:28 | 38.97748 | -84.78391 | 3116 ft | 225 kts | 347° |
| 2026-05-04 09:28 | 38.99176 | -84.78347 | 2860 ft | 188 kts | 354° |
| 2026-05-04 09:28 | 39.00425 | -84.78248 | 2575 ft | 175 kts | 353° |
| 2026-05-04 09:29 | 39.01622 | -84.78160 | 2414 ft | 170 kts | 353° |
| 2026-05-04 09:29 | 39.02823 | -84.78071 | 2255 ft | 177 kts | 353° |
| 2026-05-04 09:29 | 39.04061 | -84.77996 | 2152 ft | 184 kts | 354° |
| 2026-05-04 09:29 | 39.05404 | -84.77948 | 1997 ft | 197 kts | 354° |
| 2026-05-04 09:30 | 39.06723 | -84.77893 | 2024 ft | 182 kts | 354° |
| 2026-05-04 09:30 | 39.07957 | -84.77829 | 2007 ft | 175 kts | 353° |
| 2026-05-04 09:30 | 39.09162 | -84.77788 | 1998 ft | 170 kts | 353° |
| 2026-05-04 09:30 | 39.10372 | -84.77753 | 2001 ft | 182 kts | 352° |
| 2026-05-04 09:31 | 39.11666 | -84.77723 | 2005 ft | 189 kts | 352° |
| 2026-05-04 09:31 | 39.13004 | -84.77715 | 2004 ft | 194 kts | 353° |
| 2026-05-04 09:31 | 39.14365 | -84.77718 | 1996 ft | 197 kts | 352° |
| 2026-05-04 09:31 | 39.15740 | -84.77725 | 1982 ft | 198 kts | 351° |
| 2026-05-04 09:32 | 39.17109 | -84.77732 | 1992 ft | 196 kts | 352° |
| 2026-05-04 09:32 | 39.18480 | -84.77761 | 1989 ft | 196 kts | 352° |
| 2026-05-04 09:34 | 39.23790 | -84.71109 | 1991 ft | 183 kts | 92° |
| 2026-05-04 09:34 | 39.23939 | -84.69481 | 2010 ft | 180 kts | 97° |
| 2026-05-04 09:34 | 39.23607 | -84.67982 | 2028 ft | 176 kts | 125° |
| 2026-05-04 09:34 | 39.23037 | -84.66488 | 2047 ft | 192 kts | 125° |
| 2026-05-04 09:35 | 39.22459 | -84.65065 | 2021 ft | 165 kts | 137° |
| 2026-05-04 09:35 | 39.21698 | -84.64041 | 1978 ft | 155 kts | 148° |
| 2026-05-04 09:35 | 39.20820 | -84.63354 | 1892 ft | 141 kts | 175° |
| 2026-05-04 09:35 | 39.19907 | -84.63409 | 1820 ft | 128 kts | 199° |
| 2026-05-04 09:37 | 39.13367 | -84.66154 | 1622 ft | 137 kts | 193° |
| 2026-05-04 09:37 | 39.12356 | -84.65973 | 1832 ft | 162 kts | 169° |
| 2026-05-04 09:38 | 39.11415 | -84.65372 | 1754 ft | 147 kts | 157° |
| 2026-05-04 09:38 | 39.10511 | -84.64885 | 1577 ft | 139 kts | 174° |
| 2026-05-04 09:38 | 39.09568 | -84.64755 | 1534 ft | 139 kts | 180° |
| 2026-05-04 09:38 | 39.08489 | -84.64700 | 1504 ft | 168 kts | 181° |
| 2026-05-04 09:39 | 39.07432 | -84.64676 | 1317 ft | 139 kts | 181° |
| 2026-05-04 09:39 | 39.06519 | -84.64658 | 1152 ft | 121 kts | 181° |
| 2026-05-04 09:39 | 39.05668 | -84.64664 | 968 ft | 128 kts | 181° |
| 2026-05-04 09:39 | 39.04803 | -84.64671 | 924 ft | 115 kts | 182° |
| 2026-05-04 09:40 | 39.04075 | -84.64722 | 899 ft | 89 kts | 205° |
| 2026-05-04 09:40 | 39.03933 | -84.64966 | 897 ft | 10 kts | 252° |
| 2026-05-04 09:40 | 39.03913 | -84.64995 | 898 ft | 0 kts | 195° |
| 2026-05-04 09:40 | 39.03911 | -84.64995 | 898 ft | 1 kts | 178° |
| 2026-05-04 09:41 | 39.03901 | -84.64994 | 898 ft | 2 kts | 177° |
| 2026-05-04 09:42 | 39.03846 | -84.64990 | 900 ft | 0 kts | 177° |